Archival Weather

Aeroparque Jorge Newbery

Buenos Aires, Argentina (SABE)

Report from: Sunday, March 19, 2023 6:00 PM -03
Current time: Sunday, July 14, 2024 7:25 AM -03

Current weather – Weather history – Daily summaries
Weather forecast

Temperature27.0°C (80.6°F)
Heat index30.1°C (86.2°F)
Dew point24.0°C (75.2°F)
Winds 2 kts (1 m/s, 2.3 mph) Vrb
Winds variableWinds variable
Visibility6.2 mi. (10 km)
Clouds Few clouds 2,900 ft. (884 m)
Few clouds with towering cumulus 5,000 ft. (1,524 m)
Altimeter29.77 in.Hg (1008 mB)
Relative humidity84 %
Density altitude1,960 ft. (597 m)
Remarks No significant changes expected in the next two hours
Flight conditions Visual Meteorological Conditions
Raw dataSABE 192100Z VRB02KT 9999 FEW029 FEW050TCU 27/24 Q1008 NOSIG RMK PP001
An error has occurred. This application may no longer respond until reloaded. Reload 🗙